sensor_id;sensor_type;location;lat;lon;timestamp;pressure;altitude;pressure_sealevel;temperature;humidity
66681;BME280;53575;51.366;12.350;2022-12-10T00:01:24;99428.31;;;1.10;100.00
66681;BME280;53575;51.366;12.350;2022-12-10T00:03:50;99435.16;;;1.10;100.00
66681;BME280;53575;51.366;12.350;2022-12-10T00:06:25;99430.75;;;1.03;100.00
66681;BME280;53575;51.366;12.350;2022-12-10T00:08:51;99436.03;;;1.10;100.00
66681;BME280;53575;51.366;12.350;2022-12-10T00:11:18;99431.56;;;1.00;100.00
66681;BME280;53575;51.366;12.350;2022-12-10T00:13:44;99435.88;;;1.01;100.00
66681;BME280;53575;51.366;12.350;2022-12-10T00:16:12;99434.00;;;0.92;100.00
66681;BME280;53575;51.366;12.350;2022-12-10T00:18:38;99432.25;;;0.90;100.00
66681;BME280;53575;51.366;12.350;2022-12-10T00:21:16;99433.81;;;0.82;100.00
66681;BME280;53575;51.366;12.350;2022-12-10T00:23:42;99429.66;;;0.88;100.00
66681;BME280;53575;51.366;12.350;2022-12-10T00:26:17;99428.81;;;0.91;100.00
66681;BME280;53575;51.366;12.350;2022-12-10T00:28:43;99438.03;;;0.78;100.00
66681;BME280;53575;51.366;12.350;2022-12-10T00:31:30;99429.69;;;0.91;100.00
66681;BME280;53575;51.366;12.350;2022-12-10T00:33:57;99430.47;;;0.87;100.00
66681;BME280;53575;51.366;12.350;2022-12-10T00:36:34;99430.50;;;0.89;100.00
66681;BME280;53575;51.366;12.350;2022-12-10T00:39:00;99428.81;;;0.91;100.00
66681;BME280;53575;51.366;12.350;2022-12-10T00:41:26;99433.72;;;0.77;100.00
66681;BME280;53575;51.366;12.350;2022-12-10T00:43:51;99426.09;;;0.83;100.00
66681;BME280;53575;51.366;12.350;2022-12-10T00:46:17;99432.94;;;0.81;100.00
66681;BME280;53575;51.366;12.350;2022-12-10T00:48:43;99430.31;;;0.80;100.00
66681;BME280;53575;51.366;12.350;2022-12-10T00:51:21;99442.22;;;0.73;100.00
66681;BME280;53575;51.366;12.350;2022-12-10T00:53:48;99432.25;;;0.91;100.00
66681;BME280;53575;51.366;12.350;2022-12-10T00:56:19;99439.09;;;0.89;100.00
66681;BME280;53575;51.366;12.350;2022-12-10T00:58:46;99449.19;;;0.79;100.00
66681;BME280;53575;51.366;12.350;2022-12-10T01:01:25;99449.94;;;0.73;100.00
66681;BME280;53575;51.366;12.350;2022-12-10T01:03:54;99449.09;;;0.74;100.00
66681;BME280;53575;51.366;12.350;2022-12-10T01:06:31;99456.81;;;0.74;100.00
66681;BME280;53575;51.366;12.350;2022-12-10T01:09:03;99453.44;;;0.78;100.00
66681;BME280;53575;51.366;12.350;2022-12-10T01:11:31;99463.75;;;0.80;100.00
66681;BME280;53575;51.366;12.350;2022-12-10T01:13:58;99453.44;;;0.77;100.00
66681;BME280;53575;51.366;12.350;2022-12-10T01:16:23;99457.81;;;0.82;100.00
66681;BME280;53575;51.366;12.350;2022-12-10T01:18:50;99460.31;;;0.78;100.00
66681;BME280;53575;51.366;12.350;2022-12-10T01:21:18;99456.94;;;0.82;100.00
66681;BME280;53575;51.366;12.350;2022-12-10T01:23:46;99456.03;;;0.80;100.00
66681;BME280;53575;51.366;12.350;2022-12-10T01:26:14;99461.16;;;0.78;100.00
66681;BME280;53575;51.366;12.350;2022-12-10T01:28:41;99455.19;;;0.79;100.00
66681;BME280;53575;51.366;12.350;2022-12-10T01:31:11;99461.94;;;0.74;100.00
66681;BME280;53575;51.366;12.350;2022-12-10T01:33:37;99461.88;;;0.69;100.00
66681;BME280;53575;51.366;12.350;2022-12-10T01:36:10;99464.59;;;0.77;100.00
66681;BME280;53575;51.366;12.350;2022-12-10T01:38:37;99464.53;;;0.74;100.00
66681;BME280;53575;51.366;12.350;2022-12-10T01:41:03;99462.72;;;0.70;100.00
66681;BME280;53575;51.366;12.350;2022-12-10T01:46:13;99458.72;;;0.84;100.00
66681;BME280;53575;51.366;12.350;2022-12-10T01:48:39;99464.75;;;0.86;100.00
66681;BME280;53575;51.366;12.350;2022-12-10T01:51:04;99465.66;;;0.88;100.00
66681;BME280;53575;51.366;12.350;2022-12-10T01:53:30;99465.22;;;0.65;100.00
66681;BME280;53575;51.366;12.350;2022-12-10T01:55:57;99463.50;;;0.66;100.00
66681;BME280;53575;51.366;12.350;2022-12-10T01:58:22;99460.81;;;0.60;100.00
66681;BME280;53575;51.366;12.350;2022-12-10T02:01:14;99461.16;;;0.77;100.00
66681;BME280;53575;51.366;12.350;2022-12-10T02:03:51;99457.28;;;0.55;100.00
66681;BME280;53575;51.366;12.350;2022-12-10T02:11:44;99467.34;;;0.45;100.00
66681;BME280;53575;51.366;12.350;2022-12-10T02:14:17;99466.75;;;0.57;100.00
66681;BME280;53575;51.366;12.350;2022-12-10T02:16:55;99474.75;;;0.71;100.00
66681;BME280;53575;51.366;12.350;2022-12-10T02:22:30;99454.59;;;0.92;100.00
66681;BME280;53575;51.366;12.350;2022-12-10T02:24:57;99453.38;;;0.75;100.00
66681;BME280;53575;51.366;12.350;2022-12-10T02:27:54;99461.25;;;0.83;100.00
66681;BME280;53575;51.366;12.350;2022-12-10T02:30:23;99458.03;;;0.94;100.00
66681;BME280;53575;51.366;12.350;2022-12-10T02:32:49;99467.53;;;0.97;100.00
66681;BME280;53575;51.366;12.350;2022-12-10T02:37:55;99456.16;;;0.86;99.48
66681;BME280;53575;51.366;12.350;2022-12-10T02:40:28;99458.03;;;0.93;100.00
66681;BME280;53575;51.366;12.350;2022-12-10T02:42:55;99460.41;;;0.84;100.00
66681;BME280;53575;51.366;12.350;2022-12-10T02:45:23;99460.22;;;0.73;100.00
66681;BME280;53575;51.366;12.350;2022-12-10T02:47:50;99460.53;;;0.90;100.00
66681;BME280;53575;51.366;12.350;2022-12-10T02:50:18;99460.53;;;0.90;100.00
66681;BME280;53575;51.366;12.350;2022-12-10T02:52:45;99464.59;;;0.79;100.00
66681;BME280;53575;51.366;12.350;2022-12-10T02:55:11;99466.28;;;0.77;100.00
66681;BME280;53575;51.366;12.350;2022-12-10T03:00:12;99471.31;;;0.72;100.00
66681;BME280;53575;51.366;12.350;2022-12-10T03:08:27;99462.69;;;0.68;100.00
66681;BME280;53575;51.366;12.350;2022-12-10T03:11:07;99471.31;;;0.72;100.00
66681;BME280;53575;51.366;12.350;2022-12-10T03:13:38;99475.66;;;0.73;100.00
66681;BME280;53575;51.366;12.350;2022-12-10T03:16:06;99479.88;;;0.71;100.00
66681;BME280;53575;51.366;12.350;2022-12-10T03:18:34;99479.16;;;0.77;100.00
66681;BME280;53575;51.366;12.350;2022-12-10T03:21:03;99475.66;;;0.73;100.00
66681;BME280;53575;51.366;12.350;2022-12-10T03:23:29;99480.00;;;0.77;100.00
66681;BME280;53575;51.366;12.350;2022-12-10T03:25:58;99475.75;;;0.79;100.00
66681;BME280;53575;51.366;12.350;2022-12-10T03:28:24;99475.66;;;0.75;100.00
66681;BME280;53575;51.366;12.350;2022-12-10T03:30:51;99475.66;;;0.75;100.00
66681;BME280;53575;51.366;12.350;2022-12-10T03:33:17;99481.59;;;0.72;100.00
66681;BME280;53575;51.366;12.350;2022-12-10T03:35:44;99471.28;;;0.69;100.00
66681;BME280;53575;51.366;12.350;2022-12-10T03:38:10;99470.59;;;0.78;100.00
66681;BME280;53575;51.366;12.350;2022-12-10T03:40:37;99476.59;;;0.77;100.00
66681;BME280;53575;51.366;12.350;2022-12-10T03:43:02;99471.31;;;0.72;100.00
66681;BME280;53575;51.366;12.350;2022-12-10T03:45:27;99467.97;;;0.76;100.00
66681;BME280;53575;51.366;12.350;2022-12-10T03:47:53;99465.06;;;0.58;100.00
66681;BME280;53575;51.366;12.350;2022-12-10T03:50:18;99464.44;;;0.69;100.00
66681;BME280;53575;51.366;12.350;2022-12-10T03:52:44;99471.38;;;0.75;100.00
66681;BME280;53575;51.366;12.350;2022-12-10T03:55:09;99462.78;;;0.73;100.00
66681;BME280;53575;51.366;12.350;2022-12-10T03:57:35;99466.16;;;0.69;100.00
66681;BME280;53575;51.366;12.350;2022-12-10T04:00:02;99467.88;;;0.70;100.00
66681;BME280;53575;51.366;12.350;2022-12-10T04:02:28;99466.00;;;0.61;100.00
66681;BME280;53575;51.366;12.350;2022-12-10T04:04:53;99466.81;;;0.60;100.00
66681;BME280;53575;51.366;12.350;2022-12-10T04:07:19;99469.34;;;0.59;100.00
66681;BME280;53575;51.366;12.350;2022-12-10T04:09:46;99470.19;;;0.58;100.00
66681;BME280;53575;51.366;12.350;2022-12-10T04:12:12;99473.63;;;0.58;100.00
66681;BME280;53575;51.366;12.350;2022-12-10T04:14:37;99472.00;;;0.62;100.00
66681;BME280;53575;51.366;12.350;2022-12-10T04:17:21;99471.09;;;0.60;100.00
66681;BME280;53575;51.366;12.350;2022-12-10T04:19:47;99474.44;;;0.57;100.00
66681;BME280;53575;51.366;12.350;2022-12-10T04:22:12;99481.13;;;0.47;100.00
66681;BME280;53575;51.366;12.350;2022-12-10T04:24:56;99472.78;;;0.59;100.00
66681;BME280;53575;51.366;12.350;2022-12-10T04:27:40;99469.22;;;0.53;100.00
66681;BME280;53575;51.366;12.350;2022-12-10T04:30:08;99470.94;;;0.52;100.00
66681;BME280;53575;51.366;12.350;2022-12-10T04:32:34;99471.63;;;0.45;100.00
66681;BME280;53575;51.366;12.350;2022-12-10T04:34:59;99464.00;;;0.49;100.00
66681;BME280;53575;51.366;12.350;2022-12-10T04:37:26;99463.13;;;0.47;100.00
66681;BME280;53575;51.366;12.350;2022-12-10T04:39:51;99455.34;;;0.44;100.00
66681;BME280;53575;51.366;12.350;2022-12-10T04:42:18;99448.44;;;0.42;100.00
66681;BME280;53575;51.366;12.350;2022-12-10T04:44:43;99447.47;;;0.35;100.00
66681;BME280;53575;51.366;12.350;2022-12-10T04:47:09;99462.09;;;0.39;100.00
66681;BME280;53575;51.366;12.350;2022-12-10T04:49:36;99455.13;;;0.34;100.00
66681;BME280;53575;51.366;12.350;2022-12-10T04:52:02;99454.47;;;0.42;100.00
66681;BME280;53575;51.366;12.350;2022-12-10T04:54:28;99466.41;;;0.42;100.00
66681;BME280;53575;51.366;12.350;2022-12-10T04:56:53;99459.63;;;0.44;100.00
66681;BME280;53575;51.366;12.350;2022-12-10T04:59:19;99462.19;;;0.44;100.00
66681;BME280;53575;51.366;12.350;2022-12-10T05:01:45;99454.41;;;0.39;100.00
66681;BME280;53575;51.366;12.350;2022-12-10T05:04:12;99463.91;;;0.45;100.00
66681;BME280;53575;51.366;12.350;2022-12-10T05:06:38;99460.09;;;0.26;100.00
66681;BME280;53575;51.366;12.350;2022-12-10T05:09:04;99460.06;;;0.23;100.00
66681;BME280;53575;51.366;12.350;2022-12-10T05:11:31;99468.03;;;0.37;100.00
66681;BME280;53575;51.366;12.350;2022-12-10T05:13:57;99466.31;;;0.36;100.00
66681;BME280;53575;51.366;12.350;2022-12-10T05:16:25;99463.59;;;0.30;100.00
66681;BME280;53575;51.366;12.350;2022-12-10T05:18:53;99462.97;;;0.38;100.00
66681;BME280;53575;51.366;12.350;2022-12-10T05:21:20;99467.03;;;0.30;100.00
66681;BME280;53575;51.366;12.350;2022-12-10T05:23:48;99460.31;;;0.35;100.00
66681;BME280;53575;51.366;12.350;2022-12-10T05:26:17;99460.97;;;0.27;100.00
66681;BME280;53575;51.366;12.350;2022-12-10T05:28:47;99472.94;;;0.26;100.00
66681;BME280;53575;51.366;12.350;2022-12-10T05:31:16;99473.06;;;0.31;100.00
66681;BME280;53575;51.366;12.350;2022-12-10T05:33:42;99471.22;;;0.25;100.00
66681;BME280;53575;51.366;12.350;2022-12-10T05:36:09;99473.56;;;0.14;100.00
66681;BME280;53575;51.366;12.350;2022-12-10T05:38:34;99479.00;;;0.28;100.00
66681;BME280;53575;51.366;12.350;2022-12-10T05:41:09;99478.84;;;0.22;100.00
66681;BME280;53575;51.366;12.350;2022-12-10T05:43:36;99483.38;;;0.32;100.00
66681;BME280;53575;51.366;12.350;2022-12-10T05:46:04;99485.94;;;0.32;100.00
66681;BME280;53575;51.366;12.350;2022-12-10T05:48:31;99497.69;;;0.21;100.00
66681;BME280;53575;51.366;12.350;2022-12-10T05:50:56;99497.75;;;0.24;100.00
66681;BME280;53575;51.366;12.350;2022-12-10T05:53:23;99491.00;;;0.29;100.00
66681;BME280;53575;51.366;12.350;2022-12-10T05:55:48;99488.53;;;0.34;100.00
66681;BME280;53575;51.366;12.350;2022-12-10T05:58:14;99482.25;;;0.21;100.00
66681;BME280;53575;51.366;12.350;2022-12-10T06:00:40;99484.59;;;0.10;100.00
66681;BME280;53575;51.366;12.350;2022-12-10T06:03:06;99489.81;;;0.15;100.00
66681;BME280;53575;51.366;12.350;2022-12-10T06:05:39;99490.41;;;0.02;100.00
66681;BME280;53575;51.366;12.350;2022-12-10T06:08:05;99494.75;;;0.04;100.00
66681;BME280;53575;51.366;12.350;2022-12-10T06:10:34;99490.31;;;-0.02;100.00
66681;BME280;53575;51.366;12.350;2022-12-10T06:13:00;99492.94;;;0.00;100.00
66681;BME280;53575;51.366;12.350;2022-12-10T06:15:25;99490.25;;;-0.05;100.00
66681;BME280;53575;51.366;12.350;2022-12-10T06:17:51;99492.63;;;-0.14;100.00
66681;BME280;53575;51.366;12.350;2022-12-10T06:20:16;99499.66;;;-0.05;100.00
66681;BME280;53575;51.366;12.350;2022-12-10T06:22:42;99494.59;;;-0.02;100.00
66681;BME280;53575;51.366;12.350;2022-12-10T06:25:07;99501.44;;;-0.03;100.00
66681;BME280;53575;51.366;12.350;2022-12-10T06:27:33;99501.34;;;-0.06;100.00
66681;BME280;53575;51.366;12.350;2022-12-10T06:29:58;99500.75;;;0.05;100.00
66681;BME280;53575;51.366;12.350;2022-12-10T06:32:24;99504.03;;;-0.01;100.00
66681;BME280;53575;51.366;12.350;2022-12-10T06:34:49;99507.19;;;-0.13;100.00
66681;BME280;53575;51.366;12.350;2022-12-10T06:37:15;99513.34;;;-0.05;100.00
66681;BME280;53575;51.366;12.350;2022-12-10T06:39:40;99510.53;;;-0.15;100.00
66681;BME280;53575;51.366;12.350;2022-12-10T06:42:06;99509.56;;;-0.20;100.00
66681;BME280;53575;51.366;12.350;2022-12-10T06:44:31;99511.38;;;-0.16;100.00
66681;BME280;53575;51.366;12.350;2022-12-10T06:46:57;99516.69;;;-0.09;100.00
66681;BME280;53575;51.366;12.350;2022-12-10T06:49:22;99522.84;;;-0.02;100.00
66681;BME280;53575;51.366;12.350;2022-12-10T06:51:48;99524.94;;;-0.22;100.00
66681;BME280;53575;51.366;12.350;2022-12-10T06:54:13;99531.03;;;-0.18;100.00
66681;BME280;53575;51.366;12.350;2022-12-10T06:56:39;99528.38;;;-0.21;100.00
66681;BME280;53575;51.366;12.350;2022-12-10T06:59:05;99530.28;;;-0.13;100.00
66681;BME280;53575;51.366;12.350;2022-12-10T07:01:31;99535.44;;;-0.13;100.00
66681;BME280;53575;51.366;12.350;2022-12-10T07:03:57;99546.38;;;-0.20;100.00
66681;BME280;53575;51.366;12.350;2022-12-10T07:06:24;99543.06;;;-0.16;100.00
66681;BME280;53575;51.366;12.350;2022-12-10T07:08:50;99541.16;;;-0.23;100.00
66681;BME280;53575;51.366;12.350;2022-12-10T07:11:18;99547.81;;;-0.31;100.00
66681;BME280;53575;51.366;12.350;2022-12-10T07:13:44;99547.09;;;-0.26;100.00
66681;BME280;53575;51.366;12.350;2022-12-10T07:16:24;99543.00;;;-0.19;100.00
66681;BME280;53575;51.366;12.350;2022-12-10T07:18:50;99547.38;;;-0.15;100.00
66681;BME280;53575;51.366;12.350;2022-12-10T07:21:27;99550.75;;;-0.16;100.00
66681;BME280;53575;51.366;12.350;2022-12-10T07:23:55;99543.00;;;-0.19;100.00
66681;BME280;53575;51.366;12.350;2022-12-10T07:26:23;99542.19;;;-0.16;100.00
66681;BME280;53575;51.366;12.350;2022-12-10T07:28:49;99546.38;;;-0.20;100.00
66681;BME280;53575;51.366;12.350;2022-12-10T07:31:14;99549.78;;;-0.21;100.00
66681;BME280;53575;51.366;12.350;2022-12-10T07:33:40;99551.56;;;-0.18;100.00
66681;BME280;53575;51.366;12.350;2022-12-10T07:36:07;99549.94;;;-0.15;100.00
66681;BME280;53575;51.366;12.350;2022-12-10T07:38:33;99553.47;;;-0.10;100.00
66681;BME280;53575;51.366;12.350;2022-12-10T07:41:03;99547.50;;;-0.09;100.00
66681;BME280;53575;51.366;12.350;2022-12-10T07:43:29;99558.44;;;-0.17;100.00
66681;BME280;53575;51.366;12.350;2022-12-10T07:45:54;99552.72;;;-0.06;100.00
66681;BME280;53575;51.366;12.350;2022-12-10T07:48:20;99552.56;;;-0.12;100.00
66681;BME280;53575;51.366;12.350;2022-12-10T07:50:45;99556.72;;;-0.17;100.00
66681;BME280;53575;51.366;12.350;2022-12-10T07:53:11;99559.31;;;-0.15;100.00
66681;BME280;53575;51.366;12.350;2022-12-10T07:55:36;99560.34;;;-0.09;100.00
66681;BME280;53575;51.366;12.350;2022-12-10T07:58:03;99556.94;;;-0.08;100.00
66681;BME280;53575;51.366;12.350;2022-12-10T08:00:28;99563.53;;;-0.19;100.00
66681;BME280;53575;51.366;12.350;2022-12-10T08:02:53;99558.06;;;-0.31;100.00
66681;BME280;53575;51.366;12.350;2022-12-10T08:05:19;99563.28;;;-0.28;100.00
66681;BME280;53575;51.366;12.350;2022-12-10T08:07:45;99563.66;;;-0.13;100.00
66681;BME280;53575;51.366;12.350;2022-12-10T08:10:10;99565.47;;;-0.09;100.00
66681;BME280;53575;51.366;12.350;2022-12-10T08:12:36;99564.41;;;-0.18;100.00
66681;BME280;53575;51.366;12.350;2022-12-10T08:15:02;99569.72;;;-0.11;100.00
66681;BME280;53575;51.366;12.350;2022-12-10T08:17:28;99572.50;;;-0.02;100.00
66681;BME280;53575;51.366;12.350;2022-12-10T08:19:53;99575.13;;;0.00;100.00
66681;BME280;53575;51.366;12.350;2022-12-10T08:22:20;99566.25;;;-0.13;100.00
66681;BME280;53575;51.366;12.350;2022-12-10T08:24:45;99579.13;;;-0.11;100.00
66681;BME280;53575;51.366;12.350;2022-12-10T08:27:11;99579.25;;;-0.07;100.00
66681;BME280;53575;51.366;12.350;2022-12-10T08:29:36;99582.69;;;-0.05;100.00
66681;BME280;53575;51.366;12.350;2022-12-10T08:32:02;99589.72;;;0.03;100.00
66681;BME280;53575;51.366;12.350;2022-12-10T08:34:27;99590.84;;;0.14;100.00
66681;BME280;53575;51.366;12.350;2022-12-10T08:36:53;99590.78;;;0.11;100.00
66681;BME280;53575;51.366;12.350;2022-12-10T08:39:18;99592.66;;;0.16;100.00
66681;BME280;53575;51.366;12.350;2022-12-10T08:41:44;99586.47;;;0.10;100.00
66681;BME280;53575;51.366;12.350;2022-12-10T08:44:11;99589.88;;;0.09;100.00
66681;BME280;53575;51.366;12.350;2022-12-10T08:46:37;99586.19;;;-0.03;100.00
66681;BME280;53575;51.366;12.350;2022-12-10T08:49:03;99583.16;;;0.14;100.00
66681;BME280;53575;51.366;12.350;2022-12-10T08:51:28;99590.59;;;0.03;100.00
66681;BME280;53575;51.366;12.350;2022-12-10T08:53:54;99590.84;;;0.12;100.00
66681;BME280;53575;51.366;12.350;2022-12-10T08:56:20;99595.03;;;0.09;100.00
66681;BME280;53575;51.366;12.350;2022-12-10T08:58:45;99593.44;;;0.14;100.00
66681;BME280;53575;51.366;12.350;2022-12-10T09:01:14;99595.97;;;0.12;100.00
66681;BME280;53575;51.366;12.350;2022-12-10T09:03:40;99596.66;;;0.05;100.00
66681;BME280;53575;51.366;12.350;2022-12-10T09:06:08;99594.44;;;0.20;100.00
66681;BME280;53575;51.366;12.350;2022-12-10T09:08:34;99603.56;;;0.08;100.00
66681;BME280;53575;51.366;12.350;2022-12-10T09:11:08;99602.09;;;0.19;100.00
66681;BME280;53575;51.366;12.350;2022-12-10T09:13:33;99608.00;;;0.15;100.00
66681;BME280;53575;51.366;12.350;2022-12-10T09:15:59;99603.09;;;0.24;100.00
66681;BME280;53575;51.366;12.350;2022-12-10T09:18:24;99607.41;;;0.25;100.00
66681;BME280;53575;51.366;12.350;2022-12-10T09:20:50;99601.25;;;0.18;100.00
66681;BME280;53575;51.366;12.350;2022-12-10T09:23:15;99610.53;;;0.13;100.00
66681;BME280;53575;51.366;12.350;2022-12-10T09:25:40;99602.81;;;0.12;100.00
66681;BME280;53575;51.366;12.350;2022-12-10T09:28:06;99607.06;;;0.11;100.00
66681;BME280;53575;51.366;12.350;2022-12-10T09:30:31;99610.81;;;0.24;100.00
66681;BME280;53575;51.366;12.350;2022-12-10T09:32:57;99610.94;;;0.30;100.00
66681;BME280;53575;51.366;12.350;2022-12-10T09:35:22;99614.22;;;0.23;100.00
66681;BME280;53575;51.366;12.350;2022-12-10T09:37:47;99611.69;;;0.24;100.00
66681;BME280;53575;51.366;12.350;2022-12-10T09:40:29;99611.69;;;0.26;100.00
66681;BME280;53575;51.366;12.350;2022-12-10T09:43:09;99612.56;;;0.27;100.00
66681;BME280;53575;51.366;12.350;2022-12-10T09:46:06;99608.06;;;0.16;100.00
66681;BME280;53575;51.366;12.350;2022-12-10T09:49:38;99604.16;;;0.32;100.00
66681;BME280;53575;51.366;12.350;2022-12-10T09:51:59;99604.94;;;0.30;100.00
66681;BME280;53575;51.366;12.350;2022-12-10T09:54:40;99609.28;;;0.32;100.00
66681;BME280;53575;51.366;12.350;2022-12-10T09:57:18;99600.03;;;0.40;100.00
66681;BME280;53575;51.366;12.350;2022-12-10T09:59:48;99599.50;;;0.54;100.00
66681;BME280;53575;51.366;12.350;2022-12-10T10:04:40;99589.94;;;0.48;100.00
66681;BME280;53575;51.366;12.350;2022-12-10T10:07:06;99591.56;;;0.44;100.00
66681;BME280;53575;51.366;12.350;2022-12-10T10:09:38;99599.28;;;0.44;100.00
66681;BME280;53575;51.366;12.350;2022-12-10T10:12:12;99596.88;;;0.51;100.00
66681;BME280;53575;51.366;12.350;2022-12-10T10:14:39;99603.88;;;0.58;98.60
66681;BME280;53575;51.366;12.350;2022-12-10T10:17:11;99602.78;;;0.46;98.76
66681;BME280;53575;51.366;12.350;2022-12-10T10:19:41;99601.31;;;0.58;99.36
66681;BME280;53575;51.366;12.350;2022-12-10T10:22:10;99607.09;;;0.49;98.47
66681;BME280;53575;51.366;12.350;2022-12-10T10:24:43;99602.34;;;0.66;98.61
66681;BME280;53575;51.366;12.350;2022-12-10T10:27:18;99600.53;;;0.62;97.68
66681;BME280;53575;51.366;12.350;2022-12-10T10:29:48;99603.03;;;0.59;96.93
66681;BME280;53575;51.366;12.350;2022-12-10T10:32:18;99604.88;;;0.64;97.41
66681;BME280;53575;51.366;12.350;2022-12-10T10:34:46;99604.25;;;0.76;97.44
66681;BME280;53575;51.366;12.350;2022-12-10T10:37:29;99609.09;;;1.00;95.97
66681;BME280;53575;51.366;12.350;2022-12-10T10:39:57;99609.25;;;1.08;95.65
66681;BME280;53575;51.366;12.350;2022-12-10T10:42:33;99606.34;;;0.92;94.55
66681;BME280;53575;51.366;12.350;2022-12-10T10:45:02;99606.84;;;0.76;94.81
66681;BME280;53575;51.366;12.350;2022-12-10T10:47:32;99612.81;;;0.75;95.34
66681;BME280;53575;51.366;12.350;2022-12-10T10:49:58;99618.88;;;0.77;95.47
66681;BME280;53575;51.366;12.350;2022-12-10T10:52:28;99608.66;;;0.80;95.33
66681;BME280;53575;51.366;12.350;2022-12-10T10:54:55;99603.63;;;0.86;95.37
66681;BME280;53575;51.366;12.350;2022-12-10T10:57:36;99610.50;;;0.86;94.39
66681;BME280;53575;51.366;12.350;2022-12-10T11:02:43;99607.75;;;0.78;95.30
66681;BME280;53575;51.366;12.350;2022-12-10T11:05:29;99609.69;;;0.88;95.06
66681;BME280;53575;51.366;12.350;2022-12-10T11:08:17;99605.09;;;0.73;94.93
66681;BME280;53575;51.366;12.350;2022-12-10T11:10:49;99611.44;;;0.89;95.00
66681;BME280;53575;51.366;12.350;2022-12-10T11:13:35;99605.31;;;0.84;95.53
66681;BME280;53575;51.366;12.350;2022-12-10T11:18:43;99602.84;;;0.89;94.97
66681;BME280;53575;51.366;12.350;2022-12-10T11:21:19;99598.66;;;0.94;94.67
66681;BME280;53575;51.366;12.350;2022-12-10T11:23:49;99595.28;;;0.96;95.56
66681;BME280;53575;51.366;12.350;2022-12-10T11:32:13;99605.00;;;0.70;95.46
66681;BME280;53575;51.366;12.350;2022-12-10T11:35:13;99604.59;;;0.91;95.45
66681;BME280;53575;51.366;12.350;2022-12-10T11:38:00;99604.56;;;0.90;95.30
66681;BME280;53575;51.366;12.350;2022-12-10T11:43:24;99609.16;;;1.03;93.85
66681;BME280;53575;51.366;12.350;2022-12-10T11:46:31;99600.97;;;0.82;94.44
66681;BME280;53575;51.366;12.350;2022-12-10T11:51:31;99608.78;;;0.86;93.80
66681;BME280;53575;51.366;12.350;2022-12-10T11:56:35;99606.41;;;0.95;93.85
66681;BME280;53575;51.366;12.350;2022-12-10T11:59:36;99608.06;;;0.92;93.20
66681;BME280;53575;51.366;12.350;2022-12-10T12:05:19;99599.72;;;1.04;92.93
66681;BME280;53575;51.366;12.350;2022-12-10T12:07:59;99604.19;;;1.14;92.03
66681;BME280;53575;51.366;12.350;2022-12-10T12:16:18;99602.56;;;1.17;92.63
66681;BME280;53575;51.366;12.350;2022-12-10T12:18:54;99600.53;;;1.03;92.73
66681;BME280;53575;51.366;12.350;2022-12-10T12:21:21;99606.91;;;1.20;92.60
66681;BME280;53575;51.366;12.350;2022-12-10T12:23:49;99603.19;;;1.06;93.25
66681;BME280;53575;51.366;12.350;2022-12-10T12:31:59;99607.22;;;0.94;94.32
66681;BME280;53575;51.366;12.350;2022-12-10T12:37:21;99596.00;;;0.89;94.85
66681;BME280;53575;51.366;12.350;2022-12-10T12:39:58;99603.88;;;0.98;94.33
66681;BME280;53575;51.366;12.350;2022-12-10T12:42:44;99617.66;;;1.01;94.52
66681;BME280;53575;51.366;12.350;2022-12-10T12:45:14;99607.00;;;0.84;94.77
66681;BME280;53575;51.366;12.350;2022-12-10T12:53:04;99613.03;;;0.84;95.98
66681;BME280;53575;51.366;12.350;2022-12-10T12:58:47;99612.38;;;0.94;94.99
66681;BME280;53575;51.366;12.350;2022-12-10T13:01:36;99617.34;;;0.87;95.75
66681;BME280;53575;51.366;12.350;2022-12-10T13:04:03;99619.06;;;0.85;96.08
66681;BME280;53575;51.366;12.350;2022-12-10T13:06:33;99613.28;;;0.96;95.91
66681;BME280;53575;51.366;12.350;2022-12-10T13:11:41;99620.88;;;0.90;95.64
66681;BME280;53575;51.366;12.350;2022-12-10T13:21:58;99628.06;;;1.07;95.38
66681;BME280;53575;51.366;12.350;2022-12-10T13:29:56;99624.97;;;0.82;97.66
66681;BME280;53575;51.366;12.350;2022-12-10T13:40:42;99622.84;;;1.02;97.08
66681;BME280;53575;51.366;12.350;2022-12-10T13:43:37;99631.31;;;0.96;96.88
66681;BME280;53575;51.366;12.350;2022-12-10T13:48:53;99641.09;;;1.14;95.68
66681;BME280;53575;51.366;12.350;2022-12-10T13:57:04;99649.81;;;0.80;97.18
66681;BME280;53575;51.366;12.350;2022-12-10T13:59:47;99645.13;;;0.62;97.72
66681;BME280;53575;51.366;12.350;2022-12-10T14:02:41;99649.31;;;0.59;99.37
66681;BME280;53575;51.366;12.350;2022-12-10T14:07:59;99652.84;;;0.64;97.69
66681;BME280;53575;51.366;12.350;2022-12-10T14:10:33;99658.84;;;0.64;98.27
66681;BME280;53575;51.366;12.350;2022-12-10T14:13:04;99654.66;;;0.68;98.10
66681;BME280;53575;51.366;12.350;2022-12-10T14:15:31;99661.38;;;0.61;98.10
66681;BME280;53575;51.366;12.350;2022-12-10T14:18:09;99663.22;;;0.67;98.21
66681;BME280;53575;51.366;12.350;2022-12-10T14:20:38;99653.44;;;0.52;98.41
66681;BME280;53575;51.366;12.350;2022-12-10T14:23:30;99662.69;;;0.45;98.64
66681;BME280;53575;51.366;12.350;2022-12-10T14:28:41;99663.03;;;0.59;97.83
66681;BME280;53575;51.366;12.350;2022-12-10T14:31:13;99666.56;;;0.64;97.37
66681;BME280;53575;51.366;12.350;2022-12-10T14:33:40;99668.44;;;0.70;96.70
66681;BME280;53575;51.366;12.350;2022-12-10T14:36:06;99662.59;;;0.77;96.98
66681;BME280;53575;51.366;12.350;2022-12-10T14:38:33;99668.44;;;0.70;96.78
66681;BME280;53575;51.366;12.350;2022-12-10T14:41:00;99664.00;;;0.64;96.72
66681;BME280;53575;51.366;12.350;2022-12-10T14:43:37;99662.03;;;0.53;97.33
66681;BME280;53575;51.366;12.350;2022-12-10T14:46:04;99669.59;;;0.46;98.42
66681;BME280;53575;51.366;12.350;2022-12-10T14:48:30;99666.34;;;0.54;98.07
66681;BME280;53575;51.366;12.350;2022-12-10T14:51:04;99667.13;;;0.51;98.96